Time;durP1;ratioP1;P1;durP2;ratioP2;P2;SDS_P1;SDS_P2;PMS_P1;PMS_P2;Temp;Humidity;BMP_temperature;BMP_pressure;BME280_temperature;BME280_humidity;BME280_pressure;Samples;Min_cycle;Max_cycle;Signal;HPM_P1;HPM_P2
2022/08/03 00:02:02;;;;;;;3.45;2.85;;;;;;;;;;5069458;28;20036;-47
2022/08/03 00:04:29;;;;;;;6.03;2.83;;;;;;;;;;5092743;28;20043;-48
2022/08/03 00:06:54;;;;;;;4.28;2.85;;;23.60;99.90;;;;;;5091800;28;20028;-45
2022/08/03 00:09:20;;;;;;;4.00;2.83;;;23.60;99.90;;;;;;5091748;28;20538;-50
2022/08/03 00:11:46;;;;;;;6.28;2.85;;;23.60;99.90;;;;;;5090946;28;20028;-47
2022/08/03 00:14:11;;;;;;;3.22;2.80;;;23.50;99.90;;;;;;5088423;28;20036;-47
2022/08/03 00:16:38;;;;;;;4.72;3.22;;;23.40;99.90;;;;;;5091443;28;20039;-46
2022/08/03 00:19:04;;;;;;;5.15;2.90;;;23.50;99.90;;;;;;5088402;28;20475;-47
2022/08/03 00:21:30;;;;;;;2.97;2.67;;;;;;;;;;5088251;28;20040;-50
2022/08/03 00:23:56;;;;;;;5.25;2.92;;;;;;;;;;5091404;28;20516;-49
2022/08/03 00:26:22;;;;;;;4.68;2.95;;;;;;;;;;5091437;28;20028;-46
2022/08/03 00:28:49;;;;;;;3.25;2.92;;;;;;;;;;5091412;28;20058;-51
2022/08/03 00:31:15;;;;;;;3.33;3.03;;;;;;;;;;5091371;28;20108;-48
2022/08/03 00:33:41;;;;;;;5.88;3.20;;;;;;;;;;5090808;28;20024;-49
2022/08/03 00:36:07;;;;;;;4.13;3.30;;;;;;;;;;5091236;28;20412;-47
2022/08/03 00:38:34;;;;;;;4.85;3.35;;;;;;;;;;5020593;28;20040;-47
2022/08/03 00:41:00;;;;;;;8.38;5.65;;;;;;;;;;5090399;28;20032;-47
2022/08/03 00:43:26;;;;;;;6.15;4.97;;;;;;;;;;5038893;28;20042;-47
2022/08/03 00:45:53;;;;;;;7.53;5.10;;;;;;;;;;5052059;28;20098;-51
2022/08/03 00:48:22;;;;;;;7.15;4.53;;;;;;;;;;5090314;28;20047;-45
2022/08/03 00:50:49;;;;;;;4.85;4.20;;;;;;;;;;5067095;28;20149;-49
2022/08/03 00:53:15;;;;;;;5.10;4.18;;;23.60;99.90;;;;;;5090398;28;20024;-45
2022/08/03 00:55:42;;;;;;;5.85;4.13;;;23.50;99.90;;;;;;5090830;28;20032;-47
2022/08/03 00:58:09;;;;;;;3.40;3.00;;;23.40;99.90;;;;;;5090612;28;20076;-47
2022/08/03 01:00:38;;;;;;;5.63;3.63;;;23.40;99.90;;;;;;5091895;28;20082;-49
2022/08/03 01:03:05;;;;;;;4.70;3.28;;;23.40;99.90;;;;;;5088661;28;20028;-46
2022/08/03 01:05:42;;;;;;;5.78;3.40;;;23.30;99.90;;;;;;5090367;28;20052;-51
2022/08/03 01:08:54;;;;;;;3.72;3.13;;;23.30;99.90;;;;;;5090628;28;20080;-50
2022/08/03 01:11:59;;;;;;;9.35;3.20;;;23.10;99.90;;;;;;4987341;28;20073;-51
2022/08/03 01:14:38;;;;;;;4.07;3.33;;;23.00;99.90;;;;;;4911308;29;20059;-52
2022/08/03 01:17:15;;;;;;;4.88;3.33;;;23.10;99.90;;;;;;4931616;29;20231;-49
2022/08/03 01:19:41;;;;;;;4.30;3.30;;;;;;;;;;4930936;29;20039;-50
2022/08/03 01:22:35;;;;;;;5.40;3.72;;;22.90;99.90;;;;;;4931977;29;20032;-46
2022/08/03 01:25:22;;;;;;;6.57;4.03;;;22.80;99.90;;;;;;4930750;29;20043;-48
2022/08/03 01:28:24;;;;;;;7.13;3.88;;;22.90;99.90;;;;;;4930022;29;20082;-47
2022/08/03 01:30:54;;;;;;;3.75;3.30;;;22.90;99.90;;;;;;4931715;29;20043;-47
2022/08/03 01:33:27;;;;;;;5.88;3.53;;;22.90;99.90;;;;;;4930666;29;20548;-48
2022/08/03 01:36:08;;;;;;;5.57;3.80;;;22.90;99.90;;;;;;4930958;29;20046;-51
2022/08/03 01:38:42;;;;;;;5.45;3.05;;;23.00;99.90;;;;;;4931555;29;20531;-49
2022/08/03 01:41:20;;;;;;;5.13;3.30;;;22.90;99.90;;;;;;4931928;29;20054;-45
2022/08/03 01:43:49;;;;;;;5.13;3.35;;;22.90;99.90;;;;;;4946036;29;20039;-47
2022/08/03 01:46:17;;;;;;;5.97;3.28;;;22.80;99.90;;;;;;4930785;29;20040;-47
2022/08/03 01:48:45;;;;;;;3.85;3.08;;;22.80;99.90;;;;;;4974612;28;20647;-46
2022/08/03 01:51:12;;;;;;;3.97;3.10;;;22.80;99.90;;;;;;5087508;28;20032;-49
2022/08/03 01:53:42;;;;;;;4.20;3.30;;;22.80;99.90;;;;;;5094194;28;20119;-50
2022/08/03 01:56:12;;;;;;;4.10;3.25;;;22.90;99.90;;;;;;5094266;28;20111;-50
2022/08/03 01:58:40;;;;;;;3.88;3.30;;;22.80;99.90;;;;;;5052322;28;20032;-50
2022/08/03 02:01:08;;;;;;;5.18;3.35;;;22.80;99.90;;;;;;5090987;28;20046;-47
2022/08/03 02:03:38;;;;;;;4.05;3.42;;;22.80;99.90;;;;;;5036576;28;20066;-49
2022/08/03 02:06:05;;;;;;;3.60;3.20;;;22.80;99.90;;;;;;5076012;28;20512;-46
2022/08/03 02:08:32;;;;;;;5.57;3.55;;;22.80;99.90;;;;;;5094020;28;20044;-46
2022/08/03 02:11:03;;;;;;;7.28;3.22;;;22.80;99.90;;;;;;5095133;28;20106;-51
2022/08/03 02:13:32;;;;;;;5.07;3.78;;;22.70;99.90;;;;;;5094652;28;20027;-50
2022/08/03 02:15:58;;;;;;;4.05;2.90;;;22.70;99.90;;;;;;5095058;28;20032;-49
2022/08/03 02:18:26;;;;;;;4.07;3.28;;;22.70;99.90;;;;;;5094133;28;20118;-48
2022/08/03 02:20:53;;;;;;;6.32;3.28;;;22.70;99.90;;;;;;5057397;28;20102;-48
2022/08/03 02:23:19;;;;;;;5.82;3.45;;;22.60;99.90;;;;;;5058896;28;20131;-48
2022/08/03 02:25:49;;;;;;;4.88;3.08;;;22.70;99.90;;;;;;5094433;28;20120;-47
2022/08/03 02:28:31;;;;;;;4.00;3.60;;;22.60;99.90;;;;;;5095152;28;20039;-51
2022/08/03 02:30:59;;;;;;;4.95;3.28;;;22.60;99.90;;;;;;5044187;28;20033;-48
2022/08/03 02:33:31;;;;;;;4.80;3.60;;;22.60;99.90;;;;;;5044438;28;20908;-48
2022/08/03 02:35:58;;;;;;;3.30;3.00;;;22.50;99.90;;;;;;5044187;28;20036;-48
2022/08/03 02:38:30;;;;;;;5.70;3.58;;;22.60;99.90;;;;;;5042087;28;20062;-44
2022/08/03 02:40:57;;;;;;;7.38;3.80;;;22.60;99.90;;;;;;5045564;28;20068;-48
2022/08/03 02:43:25;;;;;;;4.55;3.13;;;22.60;99.90;;;;;;5048843;28;20535;-48
2022/08/03 02:45:53;;;;;;;4.68;3.85;;;22.50;99.90;;;;;;5016362;28;20037;-48
2022/08/03 02:48:27;;;;;;;6.53;3.60;;;22.50;99.90;;;;;;5019041;28;20038;-46
2022/08/03 02:50:55;;;;;;;4.60;3.38;;;22.40;99.90;;;;;;5045216;28;20033;-46
2022/08/03 02:53:25;;;;;;;4.82;3.40;;;22.40;99.90;;;;;;5046303;28;20095;-51
2022/08/03 02:55:54;;;;;;;5.03;3.38;;;22.40;99.90;;;;;;5030125;28;20128;-49
2022/08/03 02:58:22;;;;;;;4.95;3.70;;;22.40;99.90;;;;;;5019220;28;20041;-47
2022/08/03 03:00:50;;;;;;;6.28;3.65;;;22.30;99.90;;;;;;5040931;28;20038;-46
2022/08/03 03:03:17;;;;;;;6.57;3.70;;;22.30;99.90;;;;;;5092375;28;20043;-47
2022/08/03 03:05:44;;;;;;;5.72;3.70;;;;;;;;;;5093256;28;20028;-47
2022/08/03 03:08:14;;;;;;;7.82;3.58;;;;;;;;;;5091065;28;20040;-49
2022/08/03 03:10:41;;;;;;;5.97;3.70;;;22.10;99.90;;;;;;5074027;28;20039;-48
2022/08/03 03:13:07;;;;;;;5.93;3.65;;;22.00;99.90;;;;;;5093544;28;20023;-47
2022/08/03 03:15:36;;;;;;;6.45;3.95;;;22.00;99.90;;;;;;5093420;28;20070;-51
2022/08/03 03:18:02;;;;;;;4.70;3.78;;;22.20;99.90;;;;;;5093028;28;20032;-47
2022/08/03 03:20:31;;;;;;;7.03;3.70;;;22.10;99.90;;;;;;5093575;28;20399;-46
2022/08/03 03:23:00;;;;;;;3.65;3.35;;;22.10;99.90;;;;;;5093491;28;20110;-48
2022/08/03 03:25:30;;;;;;;12.18;9.57;;;22.20;99.90;;;;;;5091538;28;20056;-46
2022/08/03 03:27:56;;;;;;;6.18;4.85;;;22.20;99.90;;;;;;5092659;28;20386;-48
2022/08/03 03:30:22;;;;;;;6.53;4.10;;;22.30;99.90;;;;;;5092802;28;20027;-47
2022/08/03 03:32:48;;;;;;;5.07;3.38;;;22.30;99.90;;;;;;5093278;28;20027;-51
2022/08/03 03:35:15;;;;;;;4.63;3.70;;;22.40;99.90;;;;;;5056316;28;20036;-48
2022/08/03 03:37:41;;;;;;;6.45;4.15;;;22.40;99.90;;;;;;5092888;28;20043;-45
2022/08/03 03:40:08;;;;;;;8.48;3.97;;;22.40;99.90;;;;;;5092948;28;20032;-47
2022/08/03 03:42:33;;;;;;;6.97;4.30;;;22.40;99.90;;;;;;5056286;28;20553;-47
2022/08/03 03:45:03;;;;;;;5.78;4.18;;;22.40;99.90;;;;;;5071881;28;20040;-49
2022/08/03 03:47:29;;;;;;;6.65;4.07;;;22.30;99.90;;;;;;5056854;28;20505;-49
2022/08/03 03:49:57;;;;;;;4.82;4.32;;;22.40;99.90;;;;;;5056786;28;20036;-49
2022/08/03 03:52:23;;;;;;;6.88;4.20;;;22.50;99.90;;;;;;5092465;28;20056;-51
2022/08/03 03:54:48;;;;;;;6.30;3.97;;;22.60;99.90;;;;;;5093261;28;20128;-49
2022/08/03 03:57:14;;;;;;;5.80;3.90;;;22.60;99.90;;;;;;5093153;28;20024;-46
2022/08/03 03:59:41;;;;;;;7.15;3.90;;;22.60;99.90;;;;;;5092455;28;20058;-48
2022/08/03 04:02:08;;;;;;;8.32;4.43;;;22.60;99.90;;;;;;5091368;28;20506;-44
2022/08/03 04:13:02;;;;;;;10.63;4.40;;;;;;;;;;5092079;28;20062;-48
2022/08/03 04:15:28;;;;;;;9.98;5.68;;;;;;;;;;5092226;28;20024;-49
2022/08/03 04:17:57;;;;;;;8.50;4.65;;;23.00;99.90;;;;;;5073238;28;20487;-48
2022/08/03 04:20:27;;;;;;;7.15;4.60;;;23.00;99.90;;;;;;5090755;28;20078;-49
2022/08/03 04:22:55;;;;;;;11.43;4.57;;;23.00;99.90;;;;;;5091832;28;20057;-49
2022/08/03 04:25:24;;;;;;;4.80;4.30;;;23.10;99.90;;;;;;5035806;28;20036;-46
2022/08/03 04:27:54;;;;;;;8.73;3.92;;;23.10;99.90;;;;;;5090181;28;20481;-47
2022/08/03 04:30:21;;;;;;;11.50;4.53;;;23.20;99.90;;;;;;5092593;28;20073;-46
2022/08/03 04:32:50;;;;;;;15.60;5.28;;;23.30;99.90;;;;;;5057873;28;20190;-49
2022/08/03 04:35:18;;;;;;;5.63;3.97;;;23.30;99.90;;;;;;5090939;28;20028;-48
2022/08/03 04:37:55;;;;;;;4.93;4.13;;;23.30;99.90;;;;;;5060421;28;20055;-48
2022/08/03 04:40:29;;;;;;;7.72;3.90;;;23.30;99.90;;;;;;5090724;28;20036;-48
2022/08/03 04:42:55;;;;;;;4.90;4.38;;;23.40;99.90;;;;;;5091705;28;20375;-49
2022/08/03 04:45:22;;;;;;;4.93;4.18;;;23.60;99.90;;;;;;5091785;28;20035;-51
2022/08/03 04:47:49;;;;;;;8.02;4.10;;;23.50;99.90;;;;;;5092259;28;20028;-50
2022/08/03 04:50:15;;;;;;;5.97;4.10;;;23.60;99.90;;;;;;5091154;28;20391;-47
2022/08/03 04:52:42;;;;;;;7.05;4.72;;;23.70;99.90;;;;;;5091284;28;20019;-44
2022/08/03 04:55:08;;;;;;;5.03;3.83;;;23.70;99.90;;;;;;5092576;28;20126;-47
2022/08/03 04:57:33;;;;;;;6.88;4.05;;;23.60;99.90;;;;;;5091406;28;20384;-46
2022/08/03 04:59:59;;;;;;;6.03;3.95;;;23.50;99.90;;;;;;5063984;28;20044;-44
2022/08/03 05:02:25;;;;;;;8.93;4.00;;;23.40;99.90;;;;;;5089633;28;20099;-48
2022/08/03 05:04:51;;;;;;;5.93;4.13;;;23.50;99.90;;;;;;5090547;28;20024;-50
2022/08/03 05:07:18;;;;;;;7.07;4.47;;;23.50;99.90;;;;;;5089607;28;20028;-46
2022/08/03 05:09:44;;;;;;;7.32;4.40;;;23.60;99.90;;;;;;5089814;28;20513;-46
2022/08/03 05:12:10;;;;;;;5.93;4.32;;;23.60;99.90;;;;;;5091557;28;20379;-46
2022/08/03 05:14:37;;;;;;;7.10;4.85;;;23.60;99.90;;;;;;5090054;28;20036;-46
2022/08/03 05:17:07;;;;;;;8.95;4.18;;;23.70;99.90;;;;;;5090434;28;20058;-49
2022/08/03 05:19:34;;;;;;;8.00;4.88;;;23.80;99.90;;;;;;5090329;28;20040;-47
2022/08/03 05:22:00;;;;;;;6.78;3.67;;;23.80;99.90;;;;;;5090392;28;20039;-45
2022/08/03 05:24:26;;;;;;;6.53;4.45;;;23.90;99.90;;;;;;5004747;28;20040;-45
2022/08/03 05:26:52;;;;;;;5.65;4.18;;;24.00;99.90;;;;;;5090287;28;20051;-48
2022/08/03 05:29:18;;;;;;;5.40;3.80;;;24.10;99.90;;;;;;5090009;28;20127;-46
2022/08/03 05:31:44;;;;;;;6.82;4.82;;;24.10;99.90;;;;;;5089837;28;20119;-45
2022/08/03 05:34:09;;;;;;;6.07;3.70;;;24.20;99.90;;;;;;5090126;28;20027;-47
2022/08/03 05:36:35;;;;;;;5.82;3.63;;;24.50;99.90;;;;;;5055028;28;20038;-50
2022/08/03 05:39:01;;;;;;;4.95;3.50;;;24.40;99.90;;;;;;5089772;28;20028;-48
2022/08/03 05:41:27;;;;;;;3.88;3.45;;;24.40;99.90;;;;;;5089906;28;20134;-48
2022/08/03 05:43:53;;;;;;;4.10;3.65;;;24.40;99.90;;;;;;5090044;28;20035;-52
2022/08/03 05:46:20;;;;;;;4.32;3.40;;;24.40;99.90;;;;;;5036389;28;20047;-54
2022/08/03 05:48:46;;;;;;;4.35;3.35;;;24.60;99.90;;;;;;5067940;28;20113;-55
2022/08/03 05:51:12;;;;;;;3.42;2.50;;;24.60;99.90;;;;;;5035891;28;20096;-48
2022/08/03 05:53:39;;;;;;;6.22;3.10;;;24.60;99.90;;;;;;5037684;28;20036;-51
2022/08/03 05:56:05;;;;;;;7.03;3.20;;;24.70;99.90;;;;;;5090198;28;20028;-48
2022/08/03 05:58:31;;;;;;;6.50;3.60;;;24.80;99.90;;;;;;5090191;28;20054;-52
2022/08/03 06:00:56;;;;;;;5.28;2.95;;;24.90;99.90;;;;;;5020233;28;20054;-48
2022/08/03 06:03:22;;;;;;;5.68;3.33;;;24.70;99.90;;;;;;5090496;28;20119;-51
2022/08/03 06:05:48;;;;;;;6.15;3.67;;;24.80;99.90;;;;;;5037856;28;20040;-53
2022/08/03 06:08:13;;;;;;;6.72;3.08;;;24.80;99.90;;;;;;5089885;28;20078;-54
2022/08/03 06:10:39;;;;;;;6.15;3.35;;;24.80;99.90;;;;;;5090749;28;20066;-53
2022/08/03 06:13:05;;;;;;;6.47;3.17;;;24.80;99.90;;;;;;5091688;28;20028;-56
2022/08/03 06:15:32;;;;;;;5.25;3.03;;;25.00;99.90;;;;;;5090329;28;20036;-50
2022/08/03 06:17:58;;;;;;;7.97;3.58;;;25.10;99.90;;;;;;5090798;28;20436;-50
2022/08/03 06:20:24;;;;;;;6.13;3.67;;;25.00;99.90;;;;;;5086202;28;20047;-50
2022/08/03 06:22:51;;;;;;;4.85;3.30;;;25.10;99.90;;;;;;5065430;28;20094;-50
2022/08/03 06:25:18;;;;;;;5.32;3.63;;;25.20;99.90;;;;;;5028772;28;20049;-57
2022/08/03 06:27:44;;;;;;;5.15;3.40;;;25.30;99.90;;;;;;5014229;28;20123;-50
2022/08/03 06:30:11;;;;;;;3.28;2.90;;;25.30;99.90;;;;;;5014079;28;20071;-48
2022/08/03 06:32:37;;;;;;;5.13;3.83;;;25.40;99.90;;;;;;5014113;28;20107;-58
2022/08/03 06:35:07;;;;;;;8.43;3.60;;;25.50;99.90;;;;;;4981541;28;20041;-46
2022/08/03 06:37:47;;;;;;;14.95;3.80;;;25.60;99.90;;;;;;5049583;28;20036;-50
2022/08/03 06:40:16;;;;;;;4.32;2.88;;;25.60;99.90;;;;;;5051040;28;20132;-45
2022/08/03 06:42:42;;;;;;;5.90;3.25;;;25.60;99.90;;;;;;5051078;28;20039;-55
2022/08/03 06:45:09;;;;;;;5.25;3.22;;;25.60;99.90;;;;;;5050425;28;20480;-47
2022/08/03 06:47:36;;;;;;;9.35;3.10;;;25.90;99.90;;;;;;5051085;28;20017;-51
2022/08/03 06:50:03;;;;;;;3.83;3.08;;;26.00;99.90;;;;;;5051182;28;20045;-52
2022/08/03 06:52:30;;;;;;;8.15;3.00;;;26.10;99.90;;;;;;5048067;28;20029;-52
2022/08/03 06:54:56;;;;;;;13.15;4.10;;;;;;;;;;5050765;28;20032;-49
2022/08/03 06:57:22;;;;;;;21.75;7.93;;;26.30;99.90;;;;;;5086706;28;20128;-47
2022/08/03 06:59:48;;;;;;;3.47;2.72;;;26.30;99.90;;;;;;5089421;28;20106;-47
2022/08/03 07:02:14;;;;;;;5.68;3.17;;;26.50;99.90;;;;;;5091065;28;20024;-49
2022/08/03 07:04:43;;;;;;;4.82;3.00;;;;;;;;;;5089764;28;20093;-53
2022/08/03 07:07:09;;;;;;;9.02;2.97;;;26.90;99.90;;;;;;5049652;28;20032;-50
2022/08/03 07:09:35;;;;;;;7.18;3.00;;;;;;;;;;5090206;28;20051;-49
2022/08/03 07:12:03;;;;;;;8.25;2.83;;;;;;;;;;5091076;28;20024;-51
2022/08/03 07:14:28;;;;;;;7.05;2.67;;;26.90;99.90;;;;;;5092268;28;20035;-50
2022/08/03 07:16:54;;;;;;;6.78;2.90;;;27.00;99.90;;;;;;5040276;28;20078;-48
2022/08/03 07:19:20;;;;;;;7.25;2.90;;;;;;;;;;5039903;28;20028;-53
2022/08/03 07:21:46;;;;;;;8.85;3.00;;;27.40;99.90;;;;;;5094104;28;20067;-51
2022/08/03 07:24:12;;;;;;;8.40;2.92;;;27.30;99.90;;;;;;5038790;28;20063;-51
2022/08/03 07:26:38;;;;;;;3.67;2.63;;;;;;;;;;5092782;28;20028;-52
2022/08/03 07:29:04;;;;;;;4.40;2.60;;;;;;;;;;5092449;28;20044;-51
2022/08/03 07:31:30;;;;;;;4.00;2.90;;;;;;;;;;5055908;28;20126;-50
2022/08/03 07:33:56;;;;;;;7.68;3.13;;;;;;;;;;5090061;28;20039;-48
2022/08/03 07:36:23;;;;;;;5.63;2.50;;;27.80;99.90;;;;;;5090793;28;20028;-48
2022/08/03 07:38:49;;;;;;;8.68;3.20;;;27.70;99.90;;;;;;5093138;28;20064;-51
2022/08/03 07:41:15;;;;;;;7.40;3.08;;;;;;;;;;5092087;28;20040;-50
2022/08/03 07:43:41;;;;;;;12.85;3.28;;;;;;;;;;5090260;28;20119;-51
2022/08/03 07:46:07;;;;;;;7.22;2.92;;;;;;;;;;5036579;28;20044;-50
2022/08/03 07:48:33;;;;;;;7.47;3.22;;;;;;;;;;5091121;28;20039;-53
2022/08/03 07:51:04;;;;;;;5.78;2.92;;;28.20;99.90;;;;;;5091799;28;20084;-48
2022/08/03 07:53:30;;;;;;;11.07;3.85;;;28.20;99.90;;;;;;5091478;28;20036;-46
2022/08/03 07:55:56;;;;;;;5.97;3.22;;;28.30;99.90;;;;;;5090612;28;20144;-48
2022/08/03 07:58:22;;;;;;;6.65;3.13;;;28.40;99.90;;;;;;5055883;28;20452;-49
2022/08/03 08:00:49;;;;;;;6.78;2.85;;;28.40;99.90;;;;;;5056702;28;20040;-47
2022/08/03 08:03:15;;;;;;;5.93;3.00;;;28.40;99.90;;;;;;5092093;28;20089;-48
2022/08/03 08:05:41;;;;;;;4.35;2.90;;;28.60;99.90;;;;;;5092665;28;20024;-48
2022/08/03 08:08:07;;;;;;;4.72;2.80;;;28.70;99.90;;;;;;5037021;28;20425;-46
2022/08/03 08:10:33;;;;;;;6.35;3.65;;;28.70;99.90;;;;;;5071251;28;20122;-47
2022/08/03 08:13:00;;;;;;;3.63;3.20;;;28.80;99.90;;;;;;5091033;28;20028;-46
2022/08/03 08:15:26;;;;;;;10.70;3.10;;;28.90;99.90;;;;;;5072164;28;20040;-46
2022/08/03 08:17:55;;;;;;;6.88;3.25;;;28.90;99.90;;;;;;5089386;28;20038;-46
2022/08/03 08:20:25;;;;;;;5.55;2.88;;;29.00;99.90;;;;;;5072382;28;20054;-46
2022/08/03 08:22:51;;;;;;;3.78;2.60;;;29.10;99.90;;;;;;5042898;28;20060;-45
2022/08/03 08:25:17;;;;;;;7.22;2.90;;;29.20;99.90;;;;;;5062450;28;20045;-45
2022/08/03 08:27:48;;;;;;;9.07;3.00;;;29.40;99.90;;;;;;5047570;28;20153;-48
2022/08/03 08:30:17;;;;;;;7.28;3.33;;;29.50;99.90;;;;;;5048342;28;20124;-46
2022/08/03 08:32:43;;;;;;;4.68;2.90;;;;;;;;;;5027654;28;20404;-45
2022/08/03 08:35:10;;;;;;;7.07;3.30;;;;;;;;;;5046471;28;20044;-45
2022/08/03 08:37:37;;;;;;;5.20;3.15;;;;;;;;;;5031266;28;20055;-48
2022/08/03 08:40:04;;;;;;;5.13;3.17;;;;;;;;;;5047556;28;20120;-48
2022/08/03 08:42:31;;;;;;;4.75;2.67;;;30.00;99.90;;;;;;5031096;28;20041;-46
2022/08/03 08:44:57;;;;;;;3.47;2.70;;;;;;;;;;5047169;28;20039;-47
2022/08/03 08:47:25;;;;;;;4.78;2.83;;;;;;;;;;5048219;28;20064;-48
2022/08/03 08:49:54;;;;;;;4.78;2.63;;;30.20;99.90;;;;;;5046796;28;20036;-46
2022/08/03 08:52:29;;;;;;;9.45;3.22;;;30.10;99.90;;;;;;5015701;28;20049;-49
2022/08/03 08:55:00;;;;;;;5.68;2.83;;;30.30;99.90;;;;;;5085666;28;20075;-49
2022/08/03 08:57:34;;;;;;;8.45;2.70;;;30.40;99.90;;;;;;5089316;28;20039;-48
2022/08/03 09:00:00;;;;;;;7.45;3.55;;;30.60;99.90;;;;;;5088511;28;20460;-51
2022/08/03 09:02:29;;;;;;;5.38;3.13;;;30.80;99.90;;;;;;5034529;28;20138;-54
2022/08/03 09:04:56;;;;;;;8.38;2.85;;;31.00;99.90;;;;;;5089284;28;20027;-49
2022/08/03 09:07:23;;;;;;;6.05;2.75;;;;;;;;;;5087141;28;20483;-50
2022/08/03 09:09:48;;;;;;;5.03;3.10;;;31.30;98.40;;;;;;5088960;28;20487;-48
2022/08/03 09:12:14;;;;;;;4.63;2.90;;;31.60;97.40;;;;;;5069880;28;20038;-45
2022/08/03 09:14:41;;;;;;;4.68;2.90;;;;;;;;;;5090029;28;20050;-50
2022/08/03 09:17:08;;;;;;;4.88;2.75;;;32.10;97.30;;;;;;5090812;28;20032;-54
2022/08/03 09:19:35;;;;;;;8.48;2.60;;;;;;;;;;5090652;28;20426;-51
2022/08/03 09:22:16;;;;;;;4.45;2.60;;;32.30;99.90;;;;;;5087482;28;20206;-54
2022/08/03 09:24:56;;;;;;;7.20;3.03;;;32.30;95.20;;;;;;5089278;28;21102;-53
2022/08/03 09:27:22;;;;;;;4.57;3.22;;;32.50;99.90;;;;;;5054250;28;20121;-55
2022/08/03 09:29:50;;;;;;;3.72;2.70;;;32.30;95.00;;;;;;5071733;28;20047;-50
2022/08/03 09:32:19;;;;;;;6.20;2.88;;;;;;;;;;5085450;28;20442;-53
2022/08/03 09:34:46;;;;;;;4.45;2.63;;;32.80;99.40;;;;;;5085485;28;20159;-54
2022/08/03 09:37:14;;;;;;;4.50;2.47;;;;;;;;;;5083071;28;20130;-50
2022/08/03 09:39:40;;;;;;;5.63;2.80;;;33.00;99.90;;;;;;5086272;28;20177;-49
2022/08/03 09:42:10;;;;;;;4.40;2.75;;;;;;;;;;5051475;28;20171;-50
2022/08/03 09:44:37;;;;;;;8.45;3.03;;;;;;;;;;5081958;28;20467;-53
2022/08/03 09:47:04;;;;;;;6.40;2.70;;;33.70;92.80;;;;;;5062894;28;20093;-53
2022/08/03 09:49:31;;;;;;;4.30;2.50;;;33.30;92.10;;;;;;5084098;28;20056;-51
2022/08/03 09:52:01;;;;;;;4.38;2.53;;;33.30;91.90;;;;;;5044471;28;20039;-53
2022/08/03 09:54:31;;;;;;;3.30;2.42;;;33.50;91.20;;;;;;5080881;28;20119;-52
2022/08/03 09:56:58;;;;;;;5.20;2.53;;;;;;;;;;5048150;28;20071;-51
2022/08/03 09:59:28;;;;;;;5.03;2.38;;;;;;;;;;5086456;28;20036;-55
2022/08/03 10:01:54;;;;;;;11.52;3.95;;;;;;;;;;5087808;28;20044;-51
2022/08/03 10:04:22;;;;;;;4.63;2.30;;;;;;;;;;5070090;28;20040;-52
2022/08/03 10:07:05;;;;;;;4.50;2.42;;;;;;;;;;5089411;28;20118;-51
2022/08/03 10:09:31;;;;;;;4.90;2.40;;;;;;;;;;5084501;28;20059;-53
2022/08/03 10:12:06;;;;;;;6.82;2.30;;;;;;;;;;5093055;28;20490;-52
2022/08/03 10:14:33;;;;;;;4.40;2.60;;;;;;;;;;5070533;28;20590;-56
2022/08/03 10:16:59;;;;;;;3.22;2.47;;;;;;;;;;5050799;28;20047;-51
2022/08/03 10:19:27;;;;;;;7.00;2.30;;;;;;;;;;5052483;28;20037;-51
2022/08/03 10:21:54;;;;;;;3.90;2.40;;;;;;;;;;5069979;28;20037;-52
2022/08/03 10:24:24;;;;;;;2.40;2.20;;;;;;;;;;5070104;28;20044;-52
2022/08/03 10:26:51;;;;;;;3.75;2.20;;;;;;;;;;5071234;28;20040;-55
2022/08/03 10:29:24;;;;;;;3.08;2.20;;;;;;;;;;5069225;28;20052;-49
2022/08/03 10:31:52;;;;;;;5.35;2.45;;;;;;;;;;5069024;28;20108;-51
2022/08/03 10:34:22;;;;;;;5.20;2.50;;;;;;;;;;5060693;28;20045;-58
2022/08/03 10:36:49;;;;;;;4.55;2.38;;;;;;;;;;5069449;28;20024;-57
2022/08/03 10:39:18;;;;;;;11.90;3.13;;;;;;;;;;5070251;28;20029;-57
2022/08/03 10:41:46;;;;;;;4.97;2.60;;;35.80;84.20;;;;;;5069370;28;20388;-59
2022/08/03 10:44:17;;;;;;;3.42;2.28;;;36.00;84.70;;;;;;5070763;28;20028;-56
2022/08/03 10:46:44;;;;;;;4.13;2.08;;;35.60;82.80;;;;;;5090737;28;20531;-53
2022/08/03 10:49:20;;;;;;;2.80;1.90;;;35.70;83.60;;;;;;5092441;28;20054;-52
2022/08/03 10:51:47;;;;;;;3.45;2.40;;;35.90;82.70;;;;;;5090750;28;20058;-55
2022/08/03 10:57:59;;;;;;;10.25;3.00;;;35.80;82.30;;;;;;5093791;28;20093;-52
2022/08/03 11:00:27;;;;;;;4.60;2.40;;;36.00;81.60;;;;;;5004056;28;20429;-47
2022/08/03 11:03:13;;;;;;;4.60;2.30;;;35.90;81.70;;;;;;5007099;28;20165;-56
2022/08/03 11:05:46;;;;;;;3.97;2.10;;;35.90;81.20;;;;;;5005288;28;20437;-52
2022/08/03 11:08:33;;;;;;;4.45;2.50;;;36.40;81.30;;;;;;4982791;28;20132;-48
2022/08/03 11:11:02;;;;;;;4.68;2.25;;;36.30;81.10;;;;;;5028067;28;20075;-49
2022/08/03 11:13:32;;;;;;;3.35;2.10;;;35.90;80.40;;;;;;5028593;28;20481;-51
2022/08/03 11:16:00;;;;;;;3.65;2.30;;;36.40;80.90;;;;;;5029080;28;20468;-51
2022/08/03 11:18:26;;;;;;;4.72;2.35;;;;;;;;;;5028093;28;20025;-50
2022/08/03 11:20:53;;;;;;;3.30;2.42;;;36.50;79.60;;;;;;5024628;28;20517;-49
2022/08/03 11:23:40;;;;;;;3.72;2.08;;;36.20;79.90;;;;;;5012128;28;20044;-50
2022/08/03 11:26:21;;;;;;;4.00;2.50;;;36.70;80.10;;;;;;5028125;28;20037;-47
2022/08/03 11:28:47;;;;;;;6.22;2.40;;;36.70;79.90;;;;;;5026062;28;20500;-51
2022/08/03 11:31:22;;;;;;;5.22;2.30;;;37.00;80.00;;;;;;5029469;28;20060;-53
2022/08/03 11:34:07;;;;;;;3.47;2.13;;;37.10;79.30;;;;;;5028211;28;20037;-51
2022/08/03 11:37:11;;;;;;;2.38;2.17;;;37.40;84.80;;;;;;5075392;28;20043;-55
2022/08/03 11:39:47;;;;;;;5.40;2.78;;;37.40;77.40;;;;;;5063427;28;20048;-53
2022/08/03 11:42:22;;;;;;;4.45;2.25;;;37.70;79.60;;;;;;5072615;28;20036;-50
2022/08/03 11:44:53;;;;;;;6.72;2.65;;;37.50;78.90;;;;;;5090420;28;20063;-50
2022/08/03 11:47:24;;;;;;;3.97;2.20;;;37.40;78.10;;;;;;5091979;28;20024;-50
2022/08/03 11:49:52;;;;;;;5.00;2.58;;;37.60;77.10;;;;;;5090256;28;20040;-51
2022/08/03 11:52:18;;;;;;;3.90;2.38;;;37.10;77.10;;;;;;5091713;28;20051;-46
2022/08/03 11:54:44;;;;;;;2.50;2.15;;;37.00;77.60;;;;;;5055831;28;20071;-51
2022/08/03 11:57:10;;;;;;;5.05;2.15;;;37.20;77.40;;;;;;5091312;28;20032;-58
2022/08/03 11:59:37;;;;;;;2.58;1.85;;;37.00;76.50;;;;;;5038322;28;20092;-51
2022/08/03 12:02:21;;;;;;;3.60;2.35;;;37.40;77.10;;;;;;5070680;28;20044;-51
2022/08/03 12:04:51;;;;;;;4.50;2.30;;;;;;;;;;5036754;28;20080;-52
2022/08/03 12:07:17;;;;;;;7.13;4.13;;;37.20;80.70;;;;;;5067444;28;20024;-49
2022/08/03 12:10:03;;;;;;;7.82;2.55;;;37.00;76.70;;;;;;5088990;28;20079;-48
2022/08/03 12:12:29;;;;;;;4.88;2.40;;;36.80;76.60;;;;;;5091063;28;20108;-48
2022/08/03 12:14:57;;;;;;;3.70;2.35;;;36.90;76.00;;;;;;5054374;28;20124;-50
2022/08/03 12:17:22;;;;;;;6.95;2.50;;;36.90;75.80;;;;;;5053589;28;20125;-49
2022/08/03 12:19:48;;;;;;;4.15;2.30;;;37.10;75.70;;;;;;5087231;28;20039;-49
2022/08/03 12:22:15;;;;;;;5.82;2.10;;;37.60;75.70;;;;;;5054731;28;20200;-48
2022/08/03 12:24:43;;;;;;;4.55;2.30;;;37.30;74.90;;;;;;5039343;28;20055;-48
2022/08/03 12:27:09;;;;;;;5.95;2.25;;;37.20;75.20;;;;;;5089940;28;20027;-47
2022/08/03 12:29:35;;;;;;;4.72;2.22;;;36.90;75.20;;;;;;5089543;28;20047;-47
2022/08/03 12:32:01;;;;;;;2.92;2.20;;;37.10;75.00;;;;;;5089351;28;20375;-48
2022/08/03 12:34:47;;;;;;;3.22;2.33;;;37.20;74.80;;;;;;5053843;28;20032;-49
2022/08/03 12:37:13;;;;;;;2.88;2.00;;;37.20;74.50;;;;;;5089659;28;20024;-50
2022/08/03 12:39:38;;;;;;;5.05;2.42;;;36.90;75.20;;;;;;5090507;28;20565;-51
2022/08/03 12:42:04;;;;;;;4.40;2.17;;;37.10;74.90;;;;;;5037235;28;20574;-51
2022/08/03 12:44:35;;;;;;;4.47;2.05;;;37.70;75.20;;;;;;4987702;28;20044;-52
2022/08/03 12:47:01;;;;;;;4.70;2.77;;;37.80;74.70;;;;;;5089656;28;20056;-50
2022/08/03 12:49:28;;;;;;;3.83;2.30;;;;;;;;;;5089190;28;20062;-49
2022/08/03 12:51:57;;;;;;;5.43;2.15;;;38.00;73.30;;;;;;5089517;28;20450;-48
2022/08/03 12:54:32;;;;;;;5.90;2.25;;;38.10;74.30;;;;;;5089989;28;20460;-47
2022/08/03 12:57:09;;;;;;;6.28;2.33;;;38.60;74.00;;;;;;5088921;28;20032;-50
2022/08/03 12:59:44;;;;;;;3.92;2.50;;;;;;;;;;5086967;28;20020;-48
2022/08/03 13:02:26;;;;;;;3.35;2.50;;;38.80;73.00;;;;;;5088063;28;20089;-51
2022/08/03 13:04:53;;;;;;;7.20;3.05;;;38.60;74.20;;;;;;5080298;28;20040;-49
2022/08/03 13:07:19;;;;;;;7.95;3.10;;;38.30;74.20;;;;;;5049069;28;20086;-49
2022/08/03 13:09:54;;;;;;;5.97;2.58;;;38.10;74.30;;;;;;5090795;28;20063;-45
2022/08/03 13:12:49;;;;;;;11.52;3.15;;;;;;;;;;5092646;28;20051;-50
2022/08/03 13:15:15;;;;;;;5.10;2.40;;;37.00;73.60;;;;;;5088678;28;20109;-51
2022/08/03 13:18:25;;;;;;;4.30;2.80;;;36.80;74.70;;;;;;5092812;28;20040;-56
2022/08/03 13:24:13;;;;;;;4.82;2.65;;;;;;;;;;5090510;28;20073;-49
2022/08/03 13:30:02;;;;;;;8.70;3.38;;;34.50;78.00;;;;;;5090088;28;20038;-51
2022/08/03 13:35:50;;;;;;;6.78;3.33;;;34.00;87.00;;;;;;5092770;28;20066;-51
2022/08/03 13:41:19;;;;;;;5.43;2.92;;;33.70;93.40;;;;;;5092865;28;20170;-56
2022/08/03 13:47:07;;;;;;;;;;;33.70;92.00;;;;;;5094431;28;20031;-52
2022/08/03 13:52:54;;;;;;;10.07;4.07;;;33.40;92.70;;;;;;5096359;28;20535;-49